Redwood Falls Municipal Airport
KRWF : rendu visible

Aérodrome :











RETROUVEZ-NOUS SUR...

 
LOGIN :

S'inscrire | Disclaimer

   EN    FR    IT 

 









Légende :    VFR   VFR Marginal   IFR   IFR Intensif   IFR Très Intensif
Visi : 
Plafond : 
>= 8 km
>= 3000ft
5 à 8 km
1000 à 3000 ft
1500m à 5 km
500 à 1000 ft
800 à 1500m
200 à 500 ft
< 800m
< 200 ft
Symboles :   Orages  Brouillard  Fortes neiges  Fortes précipitations  Vent > 20 kt






- Altitude de l'aérodrome : 1024 ft


KRWF - Redwood Falls Municipal

DERNIER METAR :
  • 240753Z AUTO 13006KT 10SM BKN095 18/14 A2979 RMK AO2 SLP081 T01830144

METARs EXPIRÉS :
  • 240653Z AUTO 14007KT 10SM BKN080 19/14 A2979 RMK AO2 SLP083 T01890139
  • 240553Z AUTO 14008KT 10SM FEW075 20/14 A2979 RMK AO2 SLP082 60000 T02000139 10250 20200 403000122 58012

TAF KRWF
Valide du 24 à 06h jusqu'au 25 à 06h UTC


240520Z 2406/2506 16010KT P6SM BKN120
FM240900 VRB05KT P6SM FEW080 SCT250
FM241100 36006KT P6SM SCT020 BKN120
FM241700 03005KT P6SM FEW040 SCT060
FM250100 11005KT P6SM FEW250
FIR KZMP / Amérique du Nord



MET'MAP, la Météo Aéronautique d'un coup d'oeil ! - Copyright ORBIFLY Décembre 2007 - Disclaimer

ORBIFLY MET'MAP TEAM :

Programmation & Développement : Alexandra Zaïnal
Sur une idée originale de : Baudouin d'Aumeries
Assistance à la programmation : Marc-Olivier Méhu
Soutien technique & logistique : Manuel Goepfert

Contact : metmap@orbifly.com




SOURCES & CREDITS :

   NOAA       Earth
Advisory